sensor_id;sensor_type;location;lat;lon;timestamp;temperature;humidity
43087;DHT22;28708;52.224;6.924;2023-04-15T00:00:06;7.80;99.90
43087;DHT22;28708;52.224;6.924;2023-04-15T00:02:38;7.80;99.90
43087;DHT22;28708;52.224;6.924;2023-04-15T00:05:05;7.70;99.90
43087;DHT22;28708;52.224;6.924;2023-04-15T00:07:30;7.60;99.90
43087;DHT22;28708;52.224;6.924;2023-04-15T00:09:57;7.60;99.90
43087;DHT22;28708;52.224;6.924;2023-04-15T00:12:24;7.50;99.90
43087;DHT22;28708;52.224;6.924;2023-04-15T00:14:50;7.50;99.90
43087;DHT22;28708;52.224;6.924;2023-04-15T00:17:16;7.40;99.90
43087;DHT22;28708;52.224;6.924;2023-04-15T00:19:42;7.40;99.90
43087;DHT22;28708;52.224;6.924;2023-04-15T00:22:09;7.50;99.90
43087;DHT22;28708;52.224;6.924;2023-04-15T00:24:34;7.40;99.90
43087;DHT22;28708;52.224;6.924;2023-04-15T00:27:00;7.40;99.90
43087;DHT22;28708;52.224;6.924;2023-04-15T00:29:26;7.40;99.90
43087;DHT22;28708;52.224;6.924;2023-04-15T00:31:51;7.40;99.90
43087;DHT22;28708;52.224;6.924;2023-04-15T00:34:17;7.40;99.90
43087;DHT22;28708;52.224;6.924;2023-04-15T00:36:43;7.40;99.90
43087;DHT22;28708;52.224;6.924;2023-04-15T00:39:09;7.40;99.90
43087;DHT22;28708;52.224;6.924;2023-04-15T00:41:35;7.30;99.90
43087;DHT22;28708;52.224;6.924;2023-04-15T00:44:05;7.30;99.90
43087;DHT22;28708;52.224;6.924;2023-04-15T00:46:33;7.20;99.90
43087;DHT22;28708;52.224;6.924;2023-04-15T00:49:00;7.20;99.90
43087;DHT22;28708;52.224;6.924;2023-04-15T00:51:27;7.20;99.90
43087;DHT22;28708;52.224;6.924;2023-04-15T00:53:52;7.20;99.90
43087;DHT22;28708;52.224;6.924;2023-04-15T00:56:20;7.10;99.90
43087;DHT22;28708;52.224;6.924;2023-04-15T00:58:47;7.20;99.90
43087;DHT22;28708;52.224;6.924;2023-04-15T01:01:12;7.10;99.90
43087;DHT22;28708;52.224;6.924;2023-04-15T01:03:38;7.10;99.90
43087;DHT22;28708;52.224;6.924;2023-04-15T01:06:04;7.10;99.90
43087;DHT22;28708;52.224;6.924;2023-04-15T01:08:30;7.00;99.90
43087;DHT22;28708;52.224;6.924;2023-04-15T01:10:56;7.00;99.90
43087;DHT22;28708;52.224;6.924;2023-04-15T01:13:23;7.00;99.90
43087;DHT22;28708;52.224;6.924;2023-04-15T01:15:50;7.00;99.90
43087;DHT22;28708;52.224;6.924;2023-04-15T01:18:17;7.00;99.90
43087;DHT22;28708;52.224;6.924;2023-04-15T01:20:43;7.00;99.90
43087;DHT22;28708;52.224;6.924;2023-04-15T01:23:09;7.00;99.90
43087;DHT22;28708;52.224;6.924;2023-04-15T01:25:35;7.00;99.90
43087;DHT22;28708;52.224;6.924;2023-04-15T01:28:01;6.90;99.90
43087;DHT22;28708;52.224;6.924;2023-04-15T01:30:28;6.90;99.90
43087;DHT22;28708;52.224;6.924;2023-04-15T01:32:54;6.90;99.90
43087;DHT22;28708;52.224;6.924;2023-04-15T01:35:20;6.90;99.90
43087;DHT22;28708;52.224;6.924;2023-04-15T01:37:47;6.90;99.90
43087;DHT22;28708;52.224;6.924;2023-04-15T01:40:15;6.80;99.90
43087;DHT22;28708;52.224;6.924;2023-04-15T01:42:41;6.80;99.90
43087;DHT22;28708;52.224;6.924;2023-04-15T01:45:08;6.80;99.90
43087;DHT22;28708;52.224;6.924;2023-04-15T01:47:36;6.80;99.90
43087;DHT22;28708;52.224;6.924;2023-04-15T01:50:02;6.80;99.90
43087;DHT22;28708;52.224;6.924;2023-04-15T01:52:28;6.80;99.90
43087;DHT22;28708;52.224;6.924;2023-04-15T01:54:53;6.70;99.90
43087;DHT22;28708;52.224;6.924;2023-04-15T01:57:19;6.60;99.90
43087;DHT22;28708;52.224;6.924;2023-04-15T01:59:44;6.70;99.90
43087;DHT22;28708;52.224;6.924;2023-04-15T02:02:10;6.60;99.90
43087;DHT22;28708;52.224;6.924;2023-04-15T02:04:36;6.50;99.90
43087;DHT22;28708;52.224;6.924;2023-04-15T02:07:02;6.50;99.90
43087;DHT22;28708;52.224;6.924;2023-04-15T02:09:28;6.40;99.90
43087;DHT22;28708;52.224;6.924;2023-04-15T02:11:53;6.40;99.90
43087;DHT22;28708;52.224;6.924;2023-04-15T02:14:19;6.40;99.90
43087;DHT22;28708;52.224;6.924;2023-04-15T02:16:45;6.40;99.90
43087;DHT22;28708;52.224;6.924;2023-04-15T02:19:13;6.50;99.90
43087;DHT22;28708;52.224;6.924;2023-04-15T02:21:40;6.40;99.90
43087;DHT22;28708;52.224;6.924;2023-04-15T02:24:07;6.40;99.90
43087;DHT22;28708;52.224;6.924;2023-04-15T02:26:32;6.30;99.90
43087;DHT22;28708;52.224;6.924;2023-04-15T02:28:58;6.20;99.90
43087;DHT22;28708;52.224;6.924;2023-04-15T02:31:24;6.20;99.90
43087;DHT22;28708;52.224;6.924;2023-04-15T02:33:51;6.10;99.90
43087;DHT22;28708;52.224;6.924;2023-04-15T02:36:16;6.00;99.90
43087;DHT22;28708;52.224;6.924;2023-04-15T02:38:43;6.10;99.90
43087;DHT22;28708;52.224;6.924;2023-04-15T02:41:09;6.00;99.90
43087;DHT22;28708;52.224;6.924;2023-04-15T02:43:36;6.10;99.90
43087;DHT22;28708;52.224;6.924;2023-04-15T02:46:04;6.10;99.90
43087;DHT22;28708;52.224;6.924;2023-04-15T02:48:30;6.20;99.90
43087;DHT22;28708;52.224;6.924;2023-04-15T02:51:19;6.10;99.90
43087;DHT22;28708;52.224;6.924;2023-04-15T02:53:49;6.10;99.90
43087;DHT22;28708;52.224;6.924;2023-04-15T02:56:15;6.10;99.90
43087;DHT22;28708;52.224;6.924;2023-04-15T02:58:43;6.10;99.90
43087;DHT22;28708;52.224;6.924;2023-04-15T03:01:09;6.10;99.90
43087;DHT22;28708;52.224;6.924;2023-04-15T03:03:35;6.00;99.90
43087;DHT22;28708;52.224;6.924;2023-04-15T03:06:01;6.10;99.90
43087;DHT22;28708;52.224;6.924;2023-04-15T03:08:27;6.00;99.90
43087;DHT22;28708;52.224;6.924;2023-04-15T03:10:57;6.00;99.90
43087;DHT22;28708;52.224;6.924;2023-04-15T03:13:25;6.00;99.90
43087;DHT22;28708;52.224;6.924;2023-04-15T03:15:51;5.90;99.90
43087;DHT22;28708;52.224;6.924;2023-04-15T03:18:17;6.00;99.90
43087;DHT22;28708;52.224;6.924;2023-04-15T03:20:42;5.90;99.90
43087;DHT22;28708;52.224;6.924;2023-04-15T03:23:09;6.00;99.90
43087;DHT22;28708;52.224;6.924;2023-04-15T03:25:35;6.00;99.90
43087;DHT22;28708;52.224;6.924;2023-04-15T03:28:03;6.00;99.90
43087;DHT22;28708;52.224;6.924;2023-04-15T03:30:29;6.00;99.90
43087;DHT22;28708;52.224;6.924;2023-04-15T03:32:55;6.10;99.90
43087;DHT22;28708;52.224;6.924;2023-04-15T03:35:20;6.10;99.90
43087;DHT22;28708;52.224;6.924;2023-04-15T03:37:46;6.10;99.90
43087;DHT22;28708;52.224;6.924;2023-04-15T03:40:13;6.10;99.90
43087;DHT22;28708;52.224;6.924;2023-04-15T03:42:39;6.10;99.90
43087;DHT22;28708;52.224;6.924;2023-04-15T03:45:05;6.00;99.90
43087;DHT22;28708;52.224;6.924;2023-04-15T03:47:32;6.00;99.90
43087;DHT22;28708;52.224;6.924;2023-04-15T03:49:57;6.00;99.90
43087;DHT22;28708;52.224;6.924;2023-04-15T03:52:23;5.90;99.90
43087;DHT22;28708;52.224;6.924;2023-04-15T03:54:49;5.90;99.90
43087;DHT22;28708;52.224;6.924;2023-04-15T03:57:14;5.90;99.90
43087;DHT22;28708;52.224;6.924;2023-04-15T03:59:40;5.90;99.90
43087;DHT22;28708;52.224;6.924;2023-04-15T04:02:05;5.90;99.90
43087;DHT22;28708;52.224;6.924;2023-04-15T04:04:31;5.90;99.90
43087;DHT22;28708;52.224;6.924;2023-04-15T04:06:57;5.90;99.90
43087;DHT22;28708;52.224;6.924;2023-04-15T04:09:22;6.00;99.90
43087;DHT22;28708;52.224;6.924;2023-04-15T04:11:48;5.90;99.90
43087;DHT22;28708;52.224;6.924;2023-04-15T04:14:13;6.00;99.90
43087;DHT22;28708;52.224;6.924;2023-04-15T04:16:39;6.00;99.90
43087;DHT22;28708;52.224;6.924;2023-04-15T04:19:05;6.00;99.90
43087;DHT22;28708;52.224;6.924;2023-04-15T04:21:30;6.00;99.90
43087;DHT22;28708;52.224;6.924;2023-04-15T04:23:58;5.90;99.90
43087;DHT22;28708;52.224;6.924;2023-04-15T04:26:24;5.90;99.90
43087;DHT22;28708;52.224;6.924;2023-04-15T04:28:50;5.90;99.90
43087;DHT22;28708;52.224;6.924;2023-04-15T04:31:16;6.00;99.90
43087;DHT22;28708;52.224;6.924;2023-04-15T04:33:41;5.90;99.90
43087;DHT22;28708;52.224;6.924;2023-04-15T04:36:07;5.90;99.90
43087;DHT22;28708;52.224;6.924;2023-04-15T04:38:33;5.80;99.90
43087;DHT22;28708;52.224;6.924;2023-04-15T04:40:59;5.90;99.90
43087;DHT22;28708;52.224;6.924;2023-04-15T04:43:24;5.80;99.90
43087;DHT22;28708;52.224;6.924;2023-04-15T04:45:50;5.80;99.90
43087;DHT22;28708;52.224;6.924;2023-04-15T04:48:16;5.80;99.90
43087;DHT22;28708;52.224;6.924;2023-04-15T04:50:42;5.70;99.90
43087;DHT22;28708;52.224;6.924;2023-04-15T04:53:08;5.70;99.90
43087;DHT22;28708;52.224;6.924;2023-04-15T04:55:34;5.70;99.90
43087;DHT22;28708;52.224;6.924;2023-04-15T04:58:01;5.70;99.90
43087;DHT22;28708;52.224;6.924;2023-04-15T05:00:27;5.70;99.90
43087;DHT22;28708;52.224;6.924;2023-04-15T05:02:54;5.70;99.90
43087;DHT22;28708;52.224;6.924;2023-04-15T05:05:20;5.70;99.90
43087;DHT22;28708;52.224;6.924;2023-04-15T05:07:46;5.80;99.90
43087;DHT22;28708;52.224;6.924;2023-04-15T05:10:13;5.80;99.90
43087;DHT22;28708;52.224;6.924;2023-04-15T05:12:41;5.80;99.90
43087;DHT22;28708;52.224;6.924;2023-04-15T05:15:08;5.90;99.90
43087;DHT22;28708;52.224;6.924;2023-04-15T05:17:33;5.90;99.90
43087;DHT22;28708;52.224;6.924;2023-04-15T05:20:00;6.00;99.90
43087;DHT22;28708;52.224;6.924;2023-04-15T05:22:26;6.00;99.90
43087;DHT22;28708;52.224;6.924;2023-04-15T05:24:51;6.00;99.90
43087;DHT22;28708;52.224;6.924;2023-04-15T05:27:17;6.00;99.90
43087;DHT22;28708;52.224;6.924;2023-04-15T05:29:43;6.10;99.90
43087;DHT22;28708;52.224;6.924;2023-04-15T05:32:09;6.20;99.90
43087;DHT22;28708;52.224;6.924;2023-04-15T05:34:35;6.20;99.90
43087;DHT22;28708;52.224;6.924;2023-04-15T05:37:01;6.20;99.90
43087;DHT22;28708;52.224;6.924;2023-04-15T05:39:27;6.20;99.90
43087;DHT22;28708;52.224;6.924;2023-04-15T05:41:53;6.10;99.90
43087;DHT22;28708;52.224;6.924;2023-04-15T05:44:19;6.10;99.90
43087;DHT22;28708;52.224;6.924;2023-04-15T05:46:44;6.10;99.90
43087;DHT22;28708;52.224;6.924;2023-04-15T05:49:10;6.20;99.90
43087;DHT22;28708;52.224;6.924;2023-04-15T05:51:36;6.30;99.90
43087;DHT22;28708;52.224;6.924;2023-04-15T05:54:02;6.30;99.90
43087;DHT22;28708;52.224;6.924;2023-04-15T05:56:27;6.40;99.90
43087;DHT22;28708;52.224;6.924;2023-04-15T05:58:53;6.50;99.90
43087;DHT22;28708;52.224;6.924;2023-04-15T06:01:19;6.50;99.90
43087;DHT22;28708;52.224;6.924;2023-04-15T06:03:45;6.60;99.90
43087;DHT22;28708;52.224;6.924;2023-04-15T06:06:10;6.70;99.90
43087;DHT22;28708;52.224;6.924;2023-04-15T06:08:36;6.70;99.90
43087;DHT22;28708;52.224;6.924;2023-04-15T06:11:02;6.80;99.90
43087;DHT22;28708;52.224;6.924;2023-04-15T06:13:28;6.90;99.90
43087;DHT22;28708;52.224;6.924;2023-04-15T06:15:53;6.90;99.90
43087;DHT22;28708;52.224;6.924;2023-04-15T06:18:19;7.00;99.90
43087;DHT22;28708;52.224;6.924;2023-04-15T06:20:48;7.00;99.90
43087;DHT22;28708;52.224;6.924;2023-04-15T06:23:14;7.00;99.90
43087;DHT22;28708;52.224;6.924;2023-04-15T06:25:39;7.00;99.90
43087;DHT22;28708;52.224;6.924;2023-04-15T06:28:05;7.10;99.90
43087;DHT22;28708;52.224;6.924;2023-04-15T06:30:31;7.20;99.90
43087;DHT22;28708;52.224;6.924;2023-04-15T06:32:57;7.30;99.90
43087;DHT22;28708;52.224;6.924;2023-04-15T06:35:23;7.20;99.90
43087;DHT22;28708;52.224;6.924;2023-04-15T06:37:48;7.30;99.90
43087;DHT22;28708;52.224;6.924;2023-04-15T06:40:14;7.30;99.90
43087;DHT22;28708;52.224;6.924;2023-04-15T06:42:40;7.40;99.90
43087;DHT22;28708;52.224;6.924;2023-04-15T06:45:07;7.40;99.90
43087;DHT22;28708;52.224;6.924;2023-04-15T06:47:33;7.50;99.90
43087;DHT22;28708;52.224;6.924;2023-04-15T06:49:58;7.50;99.90
43087;DHT22;28708;52.224;6.924;2023-04-15T06:52:24;7.60;99.90
43087;DHT22;28708;52.224;6.924;2023-04-15T06:54:50;7.80;99.90
43087;DHT22;28708;52.224;6.924;2023-04-15T06:57:16;7.80;99.90
43087;DHT22;28708;52.224;6.924;2023-04-15T06:59:41;7.80;99.90
43087;DHT22;28708;52.224;6.924;2023-04-15T07:02:10;7.90;99.90
43087;DHT22;28708;52.224;6.924;2023-04-15T07:04:37;7.90;99.90
43087;DHT22;28708;52.224;6.924;2023-04-15T07:07:04;7.90;99.90
43087;DHT22;28708;52.224;6.924;2023-04-15T07:09:30;7.90;99.90
43087;DHT22;28708;52.224;6.924;2023-04-15T07:11:56;8.00;99.90
43087;DHT22;28708;52.224;6.924;2023-04-15T07:14:22;8.00;99.90
43087;DHT22;28708;52.224;6.924;2023-04-15T07:16:48;8.10;99.90
43087;DHT22;28708;52.224;6.924;2023-04-15T07:19:14;8.10;99.90
43087;DHT22;28708;52.224;6.924;2023-04-15T07:21:40;8.10;99.90
43087;DHT22;28708;52.224;6.924;2023-04-15T07:24:05;8.10;99.90
43087;DHT22;28708;52.224;6.924;2023-04-15T07:26:31;8.00;99.90
43087;DHT22;28708;52.224;6.924;2023-04-15T07:28:57;8.10;99.90
43087;DHT22;28708;52.224;6.924;2023-04-15T07:31:22;8.00;99.90
43087;DHT22;28708;52.224;6.924;2023-04-15T07:33:48;8.00;99.90
43087;DHT22;28708;52.224;6.924;2023-04-15T07:36:14;8.00;99.90
43087;DHT22;28708;52.224;6.924;2023-04-15T07:38:40;8.10;99.90
43087;DHT22;28708;52.224;6.924;2023-04-15T07:41:06;8.20;99.90
43087;DHT22;28708;52.224;6.924;2023-04-15T07:43:31;8.20;99.90
43087;DHT22;28708;52.224;6.924;2023-04-15T07:45:57;8.10;99.90
43087;DHT22;28708;52.224;6.924;2023-04-15T07:48:23;8.20;99.90
43087;DHT22;28708;52.224;6.924;2023-04-15T07:50:49;8.10;99.90
43087;DHT22;28708;52.224;6.924;2023-04-15T07:53:14;8.30;99.90
43087;DHT22;28708;52.224;6.924;2023-04-15T07:55:40;8.30;99.90
43087;DHT22;28708;52.224;6.924;2023-04-15T07:58:06;8.50;99.90
43087;DHT22;28708;52.224;6.924;2023-04-15T08:00:31;8.50;99.90
43087;DHT22;28708;52.224;6.924;2023-04-15T08:02:57;8.60;99.90
43087;DHT22;28708;52.224;6.924;2023-04-15T08:05:24;8.60;99.90
43087;DHT22;28708;52.224;6.924;2023-04-15T08:07:50;8.60;99.90
43087;DHT22;28708;52.224;6.924;2023-04-15T08:10:16;8.70;99.90
43087;DHT22;28708;52.224;6.924;2023-04-15T08:12:42;8.90;99.90
43087;DHT22;28708;52.224;6.924;2023-04-15T08:15:08;8.80;99.90
43087;DHT22;28708;52.224;6.924;2023-04-15T08:17:34;8.70;99.90
43087;DHT22;28708;52.224;6.924;2023-04-15T08:19:59;8.80;99.90
43087;DHT22;28708;52.224;6.924;2023-04-15T08:22:25;8.60;99.90
43087;DHT22;28708;52.224;6.924;2023-04-15T08:24:51;8.40;99.90
43087;DHT22;28708;52.224;6.924;2023-04-15T08:27:17;8.50;99.90
43087;DHT22;28708;52.224;6.924;2023-04-15T08:29:43;8.60;99.90
43087;DHT22;28708;52.224;6.924;2023-04-15T08:43:26;8.90;99.90
43087;DHT22;28708;52.224;6.924;2023-04-15T08:46:19;9.00;99.90
43087;DHT22;28708;52.224;6.924;2023-04-15T14:52:34;9.90;99.90
43087;DHT22;28708;52.224;6.924;2023-04-15T14:55:09;9.90;99.90
43087;DHT22;28708;52.224;6.924;2023-04-15T14:57:35;9.70;99.90
43087;DHT22;28708;52.224;6.924;2023-04-15T15:00:02;9.70;99.90
43087;DHT22;28708;52.224;6.924;2023-04-15T15:02:28;9.70;99.90
43087;DHT22;28708;52.224;6.924;2023-04-15T15:04:55;9.60;99.90
43087;DHT22;28708;52.224;6.924;2023-04-15T15:07:22;9.50;99.90
43087;DHT22;28708;52.224;6.924;2023-04-15T15:09:48;9.40;99.90
43087;DHT22;28708;52.224;6.924;2023-04-15T15:12:13;9.30;99.90
43087;DHT22;28708;52.224;6.924;2023-04-15T15:14:39;9.30;99.90
43087;DHT22;28708;52.224;6.924;2023-04-15T15:17:06;9.30;99.90
43087;DHT22;28708;52.224;6.924;2023-04-15T15:19:32;9.40;99.90
43087;DHT22;28708;52.224;6.924;2023-04-15T15:21:57;9.40;99.90
43087;DHT22;28708;52.224;6.924;2023-04-15T15:24:23;9.40;99.90
43087;DHT22;28708;52.224;6.924;2023-04-15T15:26:49;9.30;99.90
43087;DHT22;28708;52.224;6.924;2023-04-15T15:29:14;9.20;99.90
43087;DHT22;28708;52.224;6.924;2023-04-15T15:31:42;9.00;99.90
43087;DHT22;28708;52.224;6.924;2023-04-15T15:34:09;9.00;99.90
43087;DHT22;28708;52.224;6.924;2023-04-15T15:36:35;9.00;99.90
43087;DHT22;28708;52.224;6.924;2023-04-15T15:39:01;9.00;99.90
43087;DHT22;28708;52.224;6.924;2023-04-15T15:41:26;9.00;99.90
43087;DHT22;28708;52.224;6.924;2023-04-15T15:43:53;8.90;99.90
43087;DHT22;28708;52.224;6.924;2023-04-15T15:46:18;9.00;99.90
43087;DHT22;28708;52.224;6.924;2023-04-15T15:48:44;9.00;99.90
43087;DHT22;28708;52.224;6.924;2023-04-15T15:51:10;9.00;99.90
43087;DHT22;28708;52.224;6.924;2023-04-15T15:53:35;9.00;99.90
43087;DHT22;28708;52.224;6.924;2023-04-15T15:56:01;9.00;99.90
43087;DHT22;28708;52.224;6.924;2023-04-15T15:58:29;9.00;99.90
43087;DHT22;28708;52.224;6.924;2023-04-15T16:00:55;9.00;99.90
43087;DHT22;28708;52.224;6.924;2023-04-15T16:03:22;9.10;99.90
43087;DHT22;28708;52.224;6.924;2023-04-15T16:05:48;9.00;99.90
43087;DHT22;28708;52.224;6.924;2023-04-15T16:08:14;9.00;99.90
43087;DHT22;28708;52.224;6.924;2023-04-15T16:10:40;9.00;99.90
43087;DHT22;28708;52.224;6.924;2023-04-15T16:13:06;9.00;99.90
43087;DHT22;28708;52.224;6.924;2023-04-15T16:15:32;9.00;99.90
43087;DHT22;28708;52.224;6.924;2023-04-15T16:17:59;9.00;99.90
43087;DHT22;28708;52.224;6.924;2023-04-15T16:20:25;8.90;99.90
43087;DHT22;28708;52.224;6.924;2023-04-15T16:22:51;9.00;99.90
43087;DHT22;28708;52.224;6.924;2023-04-15T16:25:16;8.90;99.90
43087;DHT22;28708;52.224;6.924;2023-04-15T16:27:42;9.00;99.90
43087;DHT22;28708;52.224;6.924;2023-04-15T16:30:09;8.90;99.90
43087;DHT22;28708;52.224;6.924;2023-04-15T16:32:35;8.90;99.90
43087;DHT22;28708;52.224;6.924;2023-04-15T16:35:02;8.80;99.90
43087;DHT22;28708;52.224;6.924;2023-04-15T16:37:27;8.80;99.90
43087;DHT22;28708;52.224;6.924;2023-04-15T16:39:53;8.80;99.90
43087;DHT22;28708;52.224;6.924;2023-04-15T16:42:19;8.80;99.90
43087;DHT22;28708;52.224;6.924;2023-04-15T16:44:44;8.80;99.90
43087;DHT22;28708;52.224;6.924;2023-04-15T16:47:10;8.80;99.90
43087;DHT22;28708;52.224;6.924;2023-04-15T16:49:37;8.80;99.90
43087;DHT22;28708;52.224;6.924;2023-04-15T16:52:02;8.80;99.90
43087;DHT22;28708;52.224;6.924;2023-04-15T16:54:28;8.80;99.90
43087;DHT22;28708;52.224;6.924;2023-04-15T16:56:55;8.80;99.90
43087;DHT22;28708;52.224;6.924;2023-04-15T16:59:22;8.90;99.90
43087;DHT22;28708;52.224;6.924;2023-04-15T17:01:47;8.90;99.90
43087;DHT22;28708;52.224;6.924;2023-04-15T17:04:13;8.80;99.90
43087;DHT22;28708;52.224;6.924;2023-04-15T17:06:39;8.80;99.90
43087;DHT22;28708;52.224;6.924;2023-04-15T17:09:04;8.80;99.90
43087;DHT22;28708;52.224;6.924;2023-04-15T17:11:30;8.90;99.90
43087;DHT22;28708;52.224;6.924;2023-04-15T17:13:56;8.80;99.90
43087;DHT22;28708;52.224;6.924;2023-04-15T17:16:22;8.70;99.90
43087;DHT22;28708;52.224;6.924;2023-04-15T17:18:47;8.80;99.90
43087;DHT22;28708;52.224;6.924;2023-04-15T17:21:15;8.80;99.90
43087;DHT22;28708;52.224;6.924;2023-04-15T17:23:42;8.80;99.90
43087;DHT22;28708;52.224;6.924;2023-04-15T17:26:07;8.70;99.90
43087;DHT22;28708;52.224;6.924;2023-04-15T17:28:33;8.70;99.90
43087;DHT22;28708;52.224;6.924;2023-04-15T17:30:58;8.80;99.90
43087;DHT22;28708;52.224;6.924;2023-04-15T17:33:25;8.80;99.90
43087;DHT22;28708;52.224;6.924;2023-04-15T17:35:51;8.80;99.90
43087;DHT22;28708;52.224;6.924;2023-04-15T17:38:16;8.70;99.90
43087;DHT22;28708;52.224;6.924;2023-04-15T17:40:42;8.70;99.90
43087;DHT22;28708;52.224;6.924;2023-04-15T17:43:08;8.70;99.90
43087;DHT22;28708;52.224;6.924;2023-04-15T17:45:33;8.70;99.90
43087;DHT22;28708;52.224;6.924;2023-04-15T17:48:00;8.60;99.90
43087;DHT22;28708;52.224;6.924;2023-04-15T17:50:32;8.60;99.90
43087;DHT22;28708;52.224;6.924;2023-04-15T17:53:10;8.60;99.90
43087;DHT22;28708;52.224;6.924;2023-04-15T17:55:36;8.60;99.90
43087;DHT22;28708;52.224;6.924;2023-04-15T17:58:02;8.60;99.90
43087;DHT22;28708;52.224;6.924;2023-04-15T18:00:27;8.50;99.90
43087;DHT22;28708;52.224;6.924;2023-04-15T18:02:53;8.50;99.90
43087;DHT22;28708;52.224;6.924;2023-04-15T18:05:19;8.50;99.90
43087;DHT22;28708;52.224;6.924;2023-04-15T18:07:44;8.50;99.90
43087;DHT22;28708;52.224;6.924;2023-04-15T18:10:10;8.50;99.90
43087;DHT22;28708;52.224;6.924;2023-04-15T18:12:36;8.40;99.90
43087;DHT22;28708;52.224;6.924;2023-04-15T18:15:02;8.40;99.90
43087;DHT22;28708;52.224;6.924;2023-04-15T18:17:29;8.40;99.90
43087;DHT22;28708;52.224;6.924;2023-04-15T18:19:55;8.50;99.90
43087;DHT22;28708;52.224;6.924;2023-04-15T18:22:20;8.40;99.90
43087;DHT22;28708;52.224;6.924;2023-04-15T18:24:46;8.40;99.90
43087;DHT22;28708;52.224;6.924;2023-04-15T18:27:15;8.40;99.90
43087;DHT22;28708;52.224;6.924;2023-04-15T18:29:40;8.40;99.90
43087;DHT22;28708;52.224;6.924;2023-04-15T18:32:07;8.30;99.90
43087;DHT22;28708;52.224;6.924;2023-04-15T18:34:33;8.30;99.90
43087;DHT22;28708;52.224;6.924;2023-04-15T18:36:59;8.30;99.90
43087;DHT22;28708;52.224;6.924;2023-04-15T18:39:25;8.40;99.90
43087;DHT22;28708;52.224;6.924;2023-04-15T18:41:52;8.30;99.90
43087;DHT22;28708;52.224;6.924;2023-04-15T18:44:18;8.40;99.90
43087;DHT22;28708;52.224;6.924;2023-04-15T18:46:43;8.30;99.90
43087;DHT22;28708;52.224;6.924;2023-04-15T18:49:10;8.30;99.90
43087;DHT22;28708;52.224;6.924;2023-04-15T18:51:36;8.30;99.90
43087;DHT22;28708;52.224;6.924;2023-04-15T18:54:02;8.30;99.90
43087;DHT22;28708;52.224;6.924;2023-04-15T18:56:29;8.30;99.90
43087;DHT22;28708;52.224;6.924;2023-04-15T18:58:55;8.40;99.90
43087;DHT22;28708;52.224;6.924;2023-04-15T19:01:20;8.30;99.90
43087;DHT22;28708;52.224;6.924;2023-04-15T19:03:46;8.30;99.90
43087;DHT22;28708;52.224;6.924;2023-04-15T19:06:12;8.30;99.90
43087;DHT22;28708;52.224;6.924;2023-04-15T19:08:37;8.20;99.90
43087;DHT22;28708;52.224;6.924;2023-04-15T19:11:03;8.30;99.90
43087;DHT22;28708;52.224;6.924;2023-04-15T19:13:29;8.30;99.90
43087;DHT22;28708;52.224;6.924;2023-04-15T19:15:54;8.30;99.90
43087;DHT22;28708;52.224;6.924;2023-04-15T19:18:20;8.30;99.90
43087;DHT22;28708;52.224;6.924;2023-04-15T19:20:46;8.30;99.90
43087;DHT22;28708;52.224;6.924;2023-04-15T19:23:14;8.30;99.90
43087;DHT22;28708;52.224;6.924;2023-04-15T19:25:40;8.20;99.90
43087;DHT22;28708;52.224;6.924;2023-04-15T19:28:06;8.30;99.90
43087;DHT22;28708;52.224;6.924;2023-04-15T19:30:32;8.30;99.90
43087;DHT22;28708;52.224;6.924;2023-04-15T19:32:57;8.30;99.90
43087;DHT22;28708;52.224;6.924;2023-04-15T19:35:23;8.20;99.90
43087;DHT22;28708;52.224;6.924;2023-04-15T19:37:49;8.30;99.90
43087;DHT22;28708;52.224;6.924;2023-04-15T19:40:14;8.30;99.90
43087;DHT22;28708;52.224;6.924;2023-04-15T19:42:40;8.30;99.90
43087;DHT22;28708;52.224;6.924;2023-04-15T19:45:06;8.20;99.90
43087;DHT22;28708;52.224;6.924;2023-04-15T19:47:32;8.30;99.90
43087;DHT22;28708;52.224;6.924;2023-04-15T19:49:58;8.30;99.90
43087;DHT22;28708;52.224;6.924;2023-04-15T19:52:24;8.20;99.90
43087;DHT22;28708;52.224;6.924;2023-04-15T19:54:49;8.20;99.90
43087;DHT22;28708;52.224;6.924;2023-04-15T19:57:15;8.20;99.90
43087;DHT22;28708;52.224;6.924;2023-04-15T19:59:41;8.30;99.90
43087;DHT22;28708;52.224;6.924;2023-04-15T20:02:07;8.20;99.90
43087;DHT22;28708;52.224;6.924;2023-04-15T20:04:32;8.20;99.90
43087;DHT22;28708;52.224;6.924;2023-04-15T20:06:58;8.20;99.90
43087;DHT22;28708;52.224;6.924;2023-04-15T20:09:24;8.20;99.90
43087;DHT22;28708;52.224;6.924;2023-04-15T20:11:49;8.20;99.90
43087;DHT22;28708;52.224;6.924;2023-04-15T20:14:15;8.30;99.90
43087;DHT22;28708;52.224;6.924;2023-04-15T20:16:42;8.20;99.90
43087;DHT22;28708;52.224;6.924;2023-04-15T20:19:07;8.20;99.90
43087;DHT22;28708;52.224;6.924;2023-04-15T20:21:35;8.20;99.90
43087;DHT22;28708;52.224;6.924;2023-04-15T20:24:00;8.20;99.90
43087;DHT22;28708;52.224;6.924;2023-04-15T20:26:26;8.30;99.90
43087;DHT22;28708;52.224;6.924;2023-04-15T20:28:53;8.20;99.90
43087;DHT22;28708;52.224;6.924;2023-04-15T20:31:19;8.20;99.90
43087;DHT22;28708;52.224;6.924;2023-04-15T20:33:45;8.20;99.90
43087;DHT22;28708;52.224;6.924;2023-04-15T20:36:10;8.20;99.90
43087;DHT22;28708;52.224;6.924;2023-04-15T20:38:36;8.10;99.90
43087;DHT22;28708;52.224;6.924;2023-04-15T20:41:02;8.10;99.90
43087;DHT22;28708;52.224;6.924;2023-04-15T20:43:27;8.20;99.90
43087;DHT22;28708;52.224;6.924;2023-04-15T20:45:54;8.20;99.90
43087;DHT22;28708;52.224;6.924;2023-04-15T20:48:20;8.20;99.90
43087;DHT22;28708;52.224;6.924;2023-04-15T20:50:45;8.20;99.90
43087;DHT22;28708;52.224;6.924;2023-04-15T20:53:11;8.10;99.90
43087;DHT22;28708;52.224;6.924;2023-04-15T20:55:36;8.10;99.90
43087;DHT22;28708;52.224;6.924;2023-04-15T20:58:02;8.10;99.90
43087;DHT22;28708;52.224;6.924;2023-04-15T21:00:28;8.20;99.90
43087;DHT22;28708;52.224;6.924;2023-04-15T21:02:54;8.20;99.90
43087;DHT22;28708;52.224;6.924;2023-04-15T21:05:19;8.10;99.90
43087;DHT22;28708;52.224;6.924;2023-04-15T21:07:45;8.20;99.90
43087;DHT22;28708;52.224;6.924;2023-04-15T21:10:10;8.20;99.90
43087;DHT22;28708;52.224;6.924;2023-04-15T21:12:36;8.20;99.90
43087;DHT22;28708;52.224;6.924;2023-04-15T21:15:05;8.20;99.90
43087;DHT22;28708;52.224;6.924;2023-04-15T21:17:31;8.30;99.90
43087;DHT22;28708;52.224;6.924;2023-04-15T21:20:00;8.30;99.90
43087;DHT22;28708;52.224;6.924;2023-04-15T21:22:26;8.30;99.90
43087;DHT22;28708;52.224;6.924;2023-04-15T21:24:51;8.30;99.90
43087;DHT22;28708;52.224;6.924;2023-04-15T21:27:17;8.30;99.90
43087;DHT22;28708;52.224;6.924;2023-04-15T21:29:43;8.30;99.90
43087;DHT22;28708;52.224;6.924;2023-04-15T21:32:08;8.20;99.90
43087;DHT22;28708;52.224;6.924;2023-04-15T21:34:34;8.20;99.90
43087;DHT22;28708;52.224;6.924;2023-04-15T21:37:00;8.30;99.90
43087;DHT22;28708;52.224;6.924;2023-04-15T21:39:26;8.30;99.90
43087;DHT22;28708;52.224;6.924;2023-04-15T21:41:51;8.20;99.90
43087;DHT22;28708;52.224;6.924;2023-04-15T21:44:17;8.20;99.90
43087;DHT22;28708;52.224;6.924;2023-04-15T21:46:42;8.20;99.90
43087;DHT22;28708;52.224;6.924;2023-04-15T21:49:08;8.30;99.90
43087;DHT22;28708;52.224;6.924;2023-04-15T21:51:34;8.20;99.90